createdAt,value
2023-04-30T00:00:24.987Z,767.0000
2023-04-30T00:01:26.413Z,768.3077
2023-04-30T00:02:27.868Z,771.2308
2023-04-30T00:03:29.450Z,773.0769
2023-04-30T00:04:30.654Z,774.0000
2023-04-30T00:05:32.147Z,775.5385
2023-04-30T00:06:33.600Z,777.9231
2023-04-30T00:07:34.966Z,782.3846
2023-04-30T00:08:36.325Z,788.1539
2023-04-30T00:09:37.786Z,787.4615
2023-04-30T00:10:39.276Z,788.0769
2023-04-30T00:11:40.682Z,787.5385
2023-04-30T00:12:42.057Z,789.0000
2023-04-30T00:13:43.517Z,789.0000
2023-04-30T00:14:44.902Z,789.3846
2023-04-30T00:15:46.392Z,788.6154
2023-04-30T00:16:47.885Z,789.2308
2023-04-30T00:17:49.235Z,790.0000
2023-04-30T00:18:50.632Z,795.0000
2023-04-30T00:19:52.215Z,793.1539
2023-04-30T00:20:53.524Z,794.3077
2023-04-30T00:21:54.933Z,791.5385
2023-04-30T00:22:56.327Z,790.0000
2023-04-30T00:23:57.780Z,790.6923
2023-04-30T00:24:59.071Z,791.0769
2023-04-30T00:26:00.666Z,789.1539
2023-04-30T00:27:02.064Z,794.0000
2023-04-30T00:28:03.466Z,796.0000
2023-04-30T00:29:04.866Z,796.5385
2023-04-30T00:30:06.308Z,794.4615
2023-04-30T00:31:07.643Z,793.4615
2023-04-30T00:32:09.271Z,792.0769
2023-04-30T00:33:10.640Z,794.8461
2023-04-30T00:34:12.033Z,799.5385
2023-04-30T00:35:13.334Z,800.1539
2023-04-30T00:36:14.849Z,799.9231
2023-04-30T00:37:16.313Z,797.6154
2023-04-30T00:38:17.738Z,797.4615
2023-04-30T00:39:19.104Z,795.9231
2023-04-30T00:40:20.600Z,795.6154
2023-04-30T00:41:21.972Z,794.3077
2023-04-30T00:42:23.516Z,795.2308
2023-04-30T00:43:24.804Z,793.4615
2023-04-30T00:44:26.258Z,797.2308
2023-04-30T00:45:27.694Z,798.7692
2023-04-30T00:46:29.275Z,796.0000
2023-04-30T00:47:30.642Z,795.6154
2023-04-30T00:48:31.994Z,794.8461
2023-04-30T00:49:33.375Z,798.7692
2023-04-30T00:50:34.731Z,804.2308
2023-04-30T00:51:36.363Z,803.4615
2023-04-30T00:52:37.626Z,799.8461
2023-04-30T00:53:39.112Z,798.2308
2023-04-30T00:54:40.484Z,800.0769
2023-04-30T00:55:41.992Z,799.0769
2023-04-30T00:56:43.376Z,800.2308
2023-04-30T00:57:44.852Z,801.2308
2023-04-30T00:58:46.261Z,799.5385
2023-04-30T00:59:47.640Z,799.4615
2023-04-30T01:00:49.048Z,798.0769
2023-04-30T01:01:50.518Z,795.0769
2023-04-30T01:02:51.981Z,794.6923
2023-04-30T01:03:53.341Z,791.5385
2023-04-30T01:04:54.646Z,790.0769
2023-04-30T01:05:56.245Z,790.7692
2023-04-30T01:06:57.536Z,792.9231
2023-04-30T01:07:59.141Z,796.5385
2023-04-30T01:09:00.448Z,799.9231
2023-04-30T01:10:01.882Z,802.2308
2023-04-30T01:11:03.306Z,799.7692
2023-04-30T01:12:04.724Z,797.5385
2023-04-30T01:13:06.172Z,792.9231
2023-04-30T01:14:07.640Z,793.4615
2023-04-30T01:15:08.902Z,790.1539
2023-04-30T01:16:10.572Z,788.6923
2023-04-30T01:17:11.861Z,789.8461
2023-04-30T01:18:13.374Z,788.9231
2023-04-30T01:19:14.691Z,788.5385
2023-04-30T01:20:16.131Z,786.0000
2023-04-30T01:21:17.542Z,779.8461
2023-04-30T01:22:18.941Z,784.2308
2023-04-30T01:23:20.459Z,786.8461
2023-04-30T01:24:21.824Z,783.6923
2023-04-30T01:25:23.246Z,784.8461
2023-04-30T01:26:24.636Z,784.3846
2023-04-30T01:27:26.103Z,787.6154
2023-04-30T01:28:27.565Z,788.3077
2023-04-30T01:29:28.918Z,789.0769
2023-04-30T01:30:30.395Z,787.1539
2023-04-30T01:31:31.782Z,784.2308
2023-04-30T01:32:33.247Z,784.0769
2023-04-30T01:33:34.644Z,782.6923
2023-04-30T01:34:36.079Z,783.0769
2023-04-30T01:35:37.471Z,787.4615
2023-04-30T01:36:38.931Z,784.3846
2023-04-30T01:37:40.300Z,786.3846
2023-04-30T01:38:41.818Z,785.7692
2023-04-30T01:39:43.210Z,784.6923
2023-04-30T01:40:44.643Z,786.0000
2023-04-30T01:41:46.007Z,787.9231
2023-04-30T01:42:47.495Z,789.9231
2023-04-30T01:43:48.901Z,793.2308
2023-04-30T01:44:50.379Z,792.4615
2023-04-30T01:45:51.731Z,792.4615
2023-04-30T01:46:53.186Z,791.0769
2023-04-30T01:47:54.594Z,791.6923
2023-04-30T01:48:55.980Z,789.6923
2023-04-30T01:49:57.430Z,787.3077
2023-04-30T01:50:58.820Z,788.1539
2023-04-30T01:52:00.255Z,790.3846
2023-04-30T01:53:01.687Z,790.8461
2023-04-30T01:54:03.123Z,795.4615
2023-04-30T01:55:04.588Z,793.0000
2023-04-30T01:56:06.009Z,790.1539
2023-04-30T01:57:07.416Z,792.1539
2023-04-30T01:58:08.889Z,794.3846
2023-04-30T01:59:10.173Z,796.8461
2023-04-30T02:00:11.773Z,798.8461
2023-04-30T02:01:13.038Z,801.5385
2023-04-30T02:02:14.527Z,798.4615
2023-04-30T02:03:16.069Z,797.4615
2023-04-30T02:04:17.404Z,796.9231
2023-04-30T02:05:18.828Z,797.3846
2023-04-30T02:06:20.348Z,798.1539
2023-04-30T02:07:21.649Z,798.6923
2023-04-30T02:08:23.097Z,798.8461
2023-04-30T02:09:24.500Z,800.0000
2023-04-30T02:10:26.066Z,808.7692
2023-04-30T02:11:27.366Z,816.0769
2023-04-30T02:12:28.851Z,823.6154
2023-04-30T02:13:30.217Z,827.2308
2023-04-30T02:14:31.692Z,829.6154
2023-04-30T02:15:33.136Z,828.6923
2023-04-30T02:16:34.653Z,829.1539
2023-04-30T02:17:36.008Z,825.1539
2023-04-30T02:18:37.403Z,823.9231
2023-04-30T02:19:38.802Z,828.3846
2023-04-30T02:20:40.244Z,828.7692
2023-04-30T02:21:41.729Z,829.3077
2023-04-30T02:22:43.060Z,829.0769
2023-04-30T02:23:44.458Z,834.1539
2023-04-30T02:24:45.937Z,832.4615
2023-04-30T02:25:47.444Z,831.3846
2023-04-30T02:26:48.709Z,826.3846
2023-04-30T02:27:50.231Z,825.6154
2023-04-30T02:28:51.594Z,830.1539
2023-04-30T02:29:53.200Z,832.8461
2023-04-30T02:30:54.471Z,830.3077
2023-04-30T02:31:56.012Z,829.1539
2023-04-30T02:32:57.336Z,826.6154
2023-04-30T02:33:58.817Z,824.3077
2023-04-30T02:35:00.218Z,825.9231
2023-04-30T02:36:01.669Z,826.9231
2023-04-30T02:37:03.036Z,831.2308
2023-04-30T02:38:04.510Z,828.9231
2023-04-30T02:39:05.830Z,827.6154
2023-04-30T02:40:07.273Z,828.7692
2023-04-30T02:41:08.699Z,830.3077
2023-04-30T02:42:10.224Z,827.3077
2023-04-30T02:43:11.574Z,833.5385
2023-04-30T02:44:13.068Z,831.9231
2023-04-30T02:45:14.302Z,829.1539
2023-04-30T02:46:15.904Z,820.8461
2023-04-30T02:47:17.328Z,824.3077
2023-04-30T02:48:18.675Z,820.7692
2023-04-30T02:49:20.069Z,826.0000
2023-04-30T02:50:21.496Z,824.6923
2023-04-30T02:51:22.911Z,825.5385
2023-04-30T02:52:24.466Z,829.2308
2023-04-30T02:53:25.767Z,830.9231
2023-04-30T02:54:27.231Z,828.4615
2023-04-30T02:55:28.608Z,831.0000
2023-04-30T02:56:30.055Z,830.4615
2023-04-30T02:57:31.494Z,828.3846
2023-04-30T02:58:32.878Z,829.6923
2023-04-30T02:59:34.377Z,829.3846
2023-04-30T03:00:35.730Z,830.6923
2023-04-30T03:01:37.224Z,828.9231
2023-04-30T03:02:38.658Z,828.0000
2023-04-30T03:03:40.113Z,827.6154
2023-04-30T03:04:41.431Z,827.8461
2023-04-30T03:05:42.834Z,829.3846
2023-04-30T03:06:44.312Z,830.9231
2023-04-30T03:07:45.725Z,826.9231
2023-04-30T03:08:47.075Z,823.6923
2023-04-30T03:09:48.543Z,823.1539
2023-04-30T03:10:49.922Z,825.6154
2023-04-30T03:11:51.384Z,826.3077
2023-04-30T03:12:52.796Z,824.5385
2023-04-30T03:13:54.253Z,820.6154
2023-04-30T03:14:55.614Z,820.5385
2023-04-30T03:15:57.126Z,822.0769
2023-04-30T03:16:58.471Z,821.1539
2023-04-30T03:18:00.075Z,821.1539
2023-04-30T03:19:01.341Z,821.3846
2023-04-30T03:20:02.785Z,822.9231
2023-04-30T03:21:04.203Z,823.0769
2023-04-30T03:22:05.670Z,823.3077
2023-04-30T03:23:07.087Z,814.4615
2023-04-30T03:24:08.507Z,813.4615
2023-04-30T03:25:09.832Z,811.7692
2023-04-30T03:26:11.336Z,813.9231
2023-04-30T03:27:12.728Z,813.3846
2023-04-30T03:28:14.264Z,811.1539
2023-04-30T03:29:15.568Z,810.2308
2023-04-30T03:30:17.030Z,806.8461
2023-04-30T03:31:19.244Z,805.5385
2023-04-30T03:32:19.868Z,806.3846
2023-04-30T03:33:21.351Z,805.8461
2023-04-30T03:34:22.728Z,807.3846
2023-04-30T03:35:24.110Z,805.2308
2023-04-30T03:36:25.529Z,806.1539
2023-04-30T03:37:26.964Z,810.5385
2023-04-30T03:38:28.429Z,810.3846
2023-04-30T03:39:29.841Z,814.3077
2023-04-30T03:40:31.221Z,814.4615
2023-04-30T03:41:32.664Z,816.6154
2023-04-30T03:42:34.081Z,814.3077
2023-04-30T03:43:35.544Z,816.0769
2023-04-30T03:44:36.900Z,815.4615
2023-04-30T03:45:38.378Z,815.9231
2023-04-30T03:46:39.792Z,816.6154
2023-04-30T03:47:41.344Z,815.5385
2023-04-30T03:48:42.774Z,814.7692
2023-04-30T03:49:44.146Z,816.5385
2023-04-30T03:50:45.491Z,813.7692
2023-04-30T03:51:47.047Z,810.4615
2023-04-30T03:52:48.420Z,809.3077
2023-04-30T03:53:49.890Z,809.7692
2023-04-30T03:54:51.359Z,810.7692
2023-04-30T03:55:52.694Z,808.6923
2023-04-30T03:56:54.102Z,812.8461
2023-04-30T03:57:55.543Z,818.4615
2023-04-30T03:58:56.987Z,819.9231
2023-04-30T03:59:58.461Z,820.3846
2023-04-30T04:00:59.796Z,815.8461
2023-04-30T04:02:01.278Z,812.6154
2023-04-30T04:03:02.717Z,813.2308
2023-04-30T04:04:04.146Z,814.0000
2023-04-30T04:05:05.545Z,809.3077
2023-04-30T04:06:07.030Z,812.4615
2023-04-30T04:07:08.384Z,813.9231
2023-04-30T04:08:09.862Z,812.9231
2023-04-30T04:09:11.291Z,811.2308
2023-04-30T04:10:12.721Z,811.4615
2023-04-30T04:11:14.060Z,813.5385
2023-04-30T04:12:15.419Z,812.0000
2023-04-30T04:13:16.904Z,812.3846
2023-04-30T04:14:18.367Z,812.8461
2023-04-30T04:15:19.777Z,814.0769
2023-04-30T04:16:21.230Z,814.6923
2023-04-30T04:17:22.703Z,811.4615
2023-04-30T04:18:24.047Z,811.0000
2023-04-30T04:19:25.478Z,810.8461
2023-04-30T04:20:26.862Z,809.1539
2023-04-30T04:21:28.265Z,806.4615
2023-04-30T04:22:29.738Z,810.8461
2023-04-30T04:23:31.157Z,811.7692
2023-04-30T04:24:32.632Z,812.9231
2023-04-30T04:25:34.013Z,814.3846
2023-04-30T04:26:35.434Z,815.3077
2023-04-30T04:27:36.901Z,814.3846
2023-04-30T04:28:38.256Z,816.5385
2023-04-30T04:29:39.715Z,817.3077
2023-04-30T04:30:41.218Z,818.5385
2023-04-30T04:31:42.524Z,818.7692
2023-04-30T04:32:44.000Z,817.1539
2023-04-30T04:33:45.374Z,815.3077
2023-04-30T04:34:46.871Z,812.2308
2023-04-30T04:35:48.211Z,812.5385
2023-04-30T04:36:49.683Z,812.9231
2023-04-30T04:37:51.055Z,811.8461
2023-04-30T04:38:52.527Z,809.9231
2023-04-30T04:39:54.039Z,808.3077
2023-04-30T04:40:55.381Z,811.5385
2023-04-30T04:41:56.742Z,816.8461
2023-04-30T04:42:58.236Z,816.3077
2023-04-30T04:43:59.579Z,817.4615
2023-04-30T04:45:01.037Z,821.3846
2023-04-30T04:46:02.614Z,831.0769
2023-04-30T04:47:03.946Z,839.0769
2023-04-30T04:48:05.377Z,839.9231
2023-04-30T04:49:06.787Z,843.1539
2023-04-30T04:50:08.118Z,846.6154
2023-04-30T04:51:09.613Z,849.2308
2023-04-30T04:52:10.964Z,850.6923
2023-04-30T04:53:12.400Z,850.0769
2023-04-30T04:54:13.794Z,845.6923
2023-04-30T04:55:15.264Z,841.8461
2023-04-30T04:56:16.705Z,842.5385
2023-04-30T04:57:18.093Z,846.9231
2023-04-30T04:58:19.475Z,847.6154
2023-04-30T04:59:20.949Z,848.6154
2023-04-30T05:00:22.312Z,850.2308
2023-04-30T05:01:23.855Z,852.0000
2023-04-30T05:02:25.269Z,853.6154
2023-04-30T05:03:26.736Z,855.1539
2023-04-30T05:04:28.002Z,853.4615
2023-04-30T05:05:29.489Z,852.6154
2023-04-30T05:06:30.935Z,853.2308
2023-04-30T05:07:32.332Z,849.2308
2023-04-30T05:08:33.720Z,849.1539
2023-04-30T05:09:35.080Z,851.1539
2023-04-30T05:10:36.544Z,851.8461
2023-04-30T05:11:38.052Z,851.3846
2023-04-30T05:12:39.408Z,852.7692
2023-04-30T05:13:40.850Z,850.3846
2023-04-30T05:14:42.273Z,846.3077
2023-04-30T05:15:43.747Z,847.8461
2023-04-30T05:16:45.171Z,846.3077
2023-04-30T05:17:46.615Z,844.3846
2023-04-30T05:18:47.927Z,846.8461
2023-04-30T05:19:49.369Z,845.4615
2023-04-30T05:20:50.806Z,843.7692
2023-04-30T05:21:52.354Z,845.6923
2023-04-30T05:22:53.673Z,846.2308
2023-04-30T05:23:55.130Z,844.4615
2023-04-30T05:24:56.461Z,844.9231
2023-04-30T05:25:57.913Z,843.6154
2023-04-30T05:26:59.261Z,841.4615
2023-04-30T05:28:00.665Z,839.4615
2023-04-30T05:29:02.122Z,837.9231
2023-04-30T05:30:03.601Z,837.3077
2023-04-30T05:31:04.986Z,838.1539
2023-04-30T05:32:06.523Z,842.7692
2023-04-30T05:33:07.904Z,844.3846
2023-04-30T05:34:09.280Z,843.1539
2023-04-30T05:35:10.666Z,847.3846
2023-04-30T05:36:12.099Z,845.0769
2023-04-30T05:37:13.543Z,845.3077
2023-04-30T05:38:14.961Z,846.4615
2023-04-30T05:39:16.389Z,845.5385
2023-04-30T05:40:17.784Z,844.3846
2023-04-30T05:41:19.215Z,849.9231
2023-04-30T05:42:20.663Z,848.6154
2023-04-30T05:43:22.072Z,848.8461
2023-04-30T05:44:23.460Z,847.8461
2023-04-30T05:45:24.914Z,841.7692
2023-04-30T05:46:26.350Z,843.7692
2023-04-30T05:47:27.796Z,843.5385
2023-04-30T05:48:29.225Z,841.3846
2023-04-30T05:49:30.518Z,840.2308
2023-04-30T05:50:32.001Z,840.2308
2023-04-30T05:51:33.479Z,837.0769
2023-04-30T05:52:34.957Z,839.2308
2023-04-30T05:53:36.444Z,842.9231
2023-04-30T05:54:37.719Z,843.6923
2023-04-30T05:55:39.175Z,843.8461
2023-04-30T05:56:40.474Z,845.3077
2023-04-30T05:57:42.126Z,842.9231
2023-04-30T05:58:43.453Z,841.1539
2023-04-30T05:59:44.853Z,837.5385
2023-04-30T06:00:46.320Z,831.4615
2023-04-30T06:01:47.818Z,833.4615
2023-04-30T06:02:49.141Z,838.0000
2023-04-30T06:03:50.604Z,842.9231
2023-04-30T06:04:51.991Z,843.6923
2023-04-30T06:05:53.346Z,844.1539
2023-04-30T06:06:54.819Z,838.5385
2023-04-30T06:07:56.297Z,837.4615
2023-04-30T06:08:57.752Z,837.6923
2023-04-30T06:09:59.153Z,834.8461
2023-04-30T06:11:00.554Z,832.0000
2023-04-30T06:12:01.984Z,831.8461
2023-04-30T06:13:03.441Z,835.2308
2023-04-30T06:14:04.850Z,833.6154
2023-04-30T06:15:06.269Z,829.4615
2023-04-30T06:16:07.751Z,830.8461
2023-04-30T06:17:09.047Z,831.0769
2023-04-30T06:18:10.526Z,836.0769
2023-04-30T06:19:12.132Z,839.7692
2023-04-30T06:20:13.358Z,841.2308
2023-04-30T06:21:14.790Z,842.1539
2023-04-30T06:22:16.286Z,844.0769
2023-04-30T06:23:17.635Z,843.4615
2023-04-30T06:24:19.106Z,846.6923
2023-04-30T06:25:20.455Z,861.7692
2023-04-30T06:26:21.944Z,875.3077
2023-04-30T06:27:23.246Z,873.2308
2023-04-30T06:28:24.861Z,869.8461
2023-04-30T06:29:26.184Z,873.5385
2023-04-30T06:30:27.638Z,874.0000
2023-04-30T06:31:29.028Z,874.1539
2023-04-30T06:32:30.455Z,873.6154
2023-04-30T06:33:31.920Z,881.6154
2023-04-30T06:34:33.365Z,889.3846
2023-04-30T06:35:34.713Z,890.5385
2023-04-30T06:36:36.164Z,893.8461
2023-04-30T06:37:37.650Z,897.5385
2023-04-30T06:38:39.047Z,898.4615
2023-04-30T06:39:40.451Z,900.5385
2023-04-30T06:40:41.837Z,900.7692
2023-04-30T06:41:43.306Z,898.5385
2023-04-30T06:42:46.858Z,895.6154
2023-04-30T06:43:46.228Z,894.1539
2023-04-30T06:44:47.575Z,896.7692
2023-04-30T06:45:48.993Z,901.0000
2023-04-30T06:46:50.374Z,901.6154
2023-04-30T06:47:51.867Z,900.3077
2023-04-30T06:48:53.262Z,894.5385
2023-04-30T06:49:54.924Z,893.2308
2023-04-30T06:50:56.068Z,892.9231
2023-04-30T06:51:57.514Z,890.4615
2023-04-30T06:52:58.842Z,893.1539
2023-04-30T06:54:00.425Z,885.0769
2023-04-30T06:55:01.772Z,885.1539
2023-04-30T06:56:03.219Z,880.7692
2023-04-30T06:57:04.588Z,885.5385
2023-04-30T06:58:06.036Z,884.3846
2023-04-30T06:59:07.479Z,878.6154
2023-04-30T07:00:09.034Z,876.8461
2023-04-30T07:01:10.320Z,866.7692
2023-04-30T07:02:11.782Z,866.2308
2023-04-30T07:03:13.268Z,861.5385
2023-04-30T07:04:14.574Z,860.8461
2023-04-30T07:05:16.050Z,861.6154
2023-04-30T07:06:17.404Z,855.7692
2023-04-30T07:07:18.872Z,853.5385
2023-04-30T07:08:20.241Z,851.6154
2023-04-30T07:09:21.726Z,851.1539
2023-04-30T07:10:23.160Z,843.9231
2023-04-30T07:11:24.544Z,845.1539
2023-04-30T07:12:26.010Z,845.8461
2023-04-30T07:13:27.381Z,844.8461
2023-04-30T07:14:28.789Z,841.3846
2023-04-30T07:15:30.299Z,830.5385
2023-04-30T07:16:31.703Z,829.1539
2023-04-30T07:17:33.094Z,828.7692
2023-04-30T07:18:34.437Z,828.6923
2023-04-30T07:19:35.948Z,829.2308
2023-04-30T07:20:37.404Z,829.6923
2023-04-30T07:21:38.730Z,824.1539
2023-04-30T07:22:40.109Z,823.5385
2023-04-30T07:23:41.600Z,821.4615
2023-04-30T07:24:43.041Z,825.0769
2023-04-30T07:25:44.469Z,825.0769
2023-04-30T07:26:45.808Z,822.4615
2023-04-30T07:27:47.251Z,822.7692
2023-04-30T07:28:48.636Z,821.0000
2023-04-30T07:29:50.167Z,824.5385
2023-04-30T07:30:51.558Z,820.6154
2023-04-30T07:31:53.070Z,819.3077
2023-04-30T07:32:54.408Z,816.0000
2023-04-30T07:33:55.786Z,815.0769
2023-04-30T07:34:57.190Z,817.0000
2023-04-30T07:35:58.705Z,820.4615
2023-04-30T07:37:00.058Z,815.6154
2023-04-30T07:38:01.527Z,817.0769
2023-04-30T07:39:02.826Z,819.2308
2023-04-30T07:40:04.377Z,812.2308
2023-04-30T07:41:05.829Z,810.6923
2023-04-30T07:42:07.227Z,808.5385
2023-04-30T07:43:08.644Z,808.6923
2023-04-30T07:44:09.932Z,809.6154
2023-04-30T07:45:11.467Z,806.3846
2023-04-30T07:46:12.945Z,805.2308
2023-04-30T07:47:14.391Z,807.4615
2023-04-30T07:48:15.719Z,806.0769
2023-04-30T07:49:17.138Z,773.7692
2023-04-30T07:50:18.709Z,688.8461
2023-04-30T07:51:20.113Z,626.5385
2023-04-30T07:52:21.595Z,586.6923
2023-04-30T07:53:22.940Z,565.6154
2023-04-30T07:54:24.421Z,549.7692
2023-04-30T07:55:25.840Z,541.3077
2023-04-30T07:56:27.267Z,532.0000
2023-04-30T07:57:28.727Z,524.2308
2023-04-30T07:58:30.051Z,515.3077
2023-04-30T07:59:31.503Z,505.6154
2023-04-30T08:00:32.942Z,496.3846
2023-04-30T08:01:34.445Z,483.7692
2023-04-30T08:02:35.918Z,479.0000
2023-04-30T08:03:37.302Z,477.2308
2023-04-30T08:04:38.635Z,473.3846
2023-04-30T08:05:40.133Z,472.3077
2023-04-30T08:06:41.616Z,472.5385
2023-04-30T08:07:43.047Z,471.8462
2023-04-30T08:08:44.314Z,471.0769
2023-04-30T08:09:45.778Z,465.3846
2023-04-30T08:10:47.148Z,467.1538
2023-04-30T08:11:48.680Z,469.4615
2023-04-30T08:12:50.019Z,474.2308
2023-04-30T08:13:51.580Z,478.2308
2023-04-30T08:14:52.895Z,483.6154
2023-04-30T08:15:54.375Z,482.8462
2023-04-30T08:16:55.837Z,472.4615
2023-04-30T08:17:57.247Z,478.0000
2023-04-30T08:18:58.575Z,484.3846
2023-04-30T08:20:00.046Z,481.9231
2023-04-30T08:21:01.435Z,475.0000
2023-04-30T08:22:02.909Z,465.1538
2023-04-30T08:23:04.303Z,461.9231
2023-04-30T08:24:05.803Z,456.2308
2023-04-30T08:25:07.143Z,453.0000
2023-04-30T08:26:08.610Z,459.0000
2023-04-30T08:27:10.034Z,464.9231
2023-04-30T08:28:11.393Z,471.5385
2023-04-30T08:29:12.886Z,474.6154
2023-04-30T08:30:14.316Z,479.9231
2023-04-30T08:31:15.707Z,481.0769
2023-04-30T08:32:17.250Z,479.1538
2023-04-30T08:33:18.706Z,481.9231
2023-04-30T08:34:20.035Z,484.0000
2023-04-30T08:35:21.365Z,484.5385
2023-04-30T08:36:22.861Z,486.7692
2023-04-30T08:37:24.271Z,495.7692
2023-04-30T08:38:27.007Z,503.3077
2023-04-30T08:39:27.233Z,505.5385
2023-04-30T08:40:43.570Z,510.7692
2023-04-30T08:41:30.010Z,510.6667
2023-04-30T08:42:31.448Z,520.3846
2023-04-30T08:43:33.123Z,533.4615
2023-04-30T08:44:34.266Z,534.6154
2023-04-30T08:45:35.751Z,540.4615
2023-04-30T08:46:37.221Z,547.6923
2023-04-30T08:47:38.637Z,548.7692
2023-04-30T08:48:40.103Z,548.9231
2023-04-30T08:49:41.503Z,550.2308
2023-04-30T08:50:42.922Z,554.3077
2023-04-30T08:51:44.324Z,551.7692
2023-04-30T08:52:45.687Z,554.8461
2023-04-30T08:53:47.206Z,559.6923
2023-04-30T08:54:48.563Z,569.0769
2023-04-30T08:55:50.003Z,577.9231
2023-04-30T08:56:51.437Z,589.4615
2023-04-30T08:57:52.890Z,606.0000
2023-04-30T08:58:54.217Z,613.3846
2023-04-30T08:59:55.889Z,617.4615
2023-04-30T09:00:57.149Z,619.6154
2023-04-30T09:01:58.641Z,622.4615
2023-04-30T09:02:59.961Z,641.6154
2023-04-30T09:04:01.538Z,665.7692
2023-04-30T09:05:02.867Z,668.3846
2023-04-30T09:06:04.414Z,673.6923
2023-04-30T09:07:06.847Z,683.7692
2023-04-30T09:08:07.129Z,691.9231
2023-04-30T09:09:08.514Z,695.6923
2023-04-30T09:10:10.046Z,699.0769
2023-04-30T09:11:11.343Z,704.1539
2023-04-30T09:12:12.831Z,720.6923
2023-04-30T09:13:14.248Z,724.6154
2023-04-30T09:14:15.644Z,724.9231
2023-04-30T09:15:17.106Z,725.0000
2023-04-30T09:16:18.632Z,728.2308
2023-04-30T09:17:19.927Z,680.9231
2023-04-30T09:18:21.421Z,613.3077
2023-04-30T09:19:22.777Z,574.0000
2023-04-30T09:20:24.313Z,552.4615
2023-04-30T09:21:25.773Z,546.2308
2023-04-30T09:22:27.080Z,532.0769
2023-04-30T09:23:28.548Z,515.6154
2023-04-30T09:24:29.933Z,507.8462
2023-04-30T09:25:31.478Z,500.4615
2023-04-30T09:26:32.958Z,486.1538
2023-04-30T09:27:34.248Z,472.0769
2023-04-30T09:28:35.693Z,468.5385
2023-04-30T09:29:37.170Z,468.4615
2023-04-30T09:30:38.573Z,464.2308
2023-04-30T09:31:40.068Z,461.6154
2023-04-30T09:32:41.463Z,459.4615
2023-04-30T09:33:42.765Z,459.3077
2023-04-30T09:34:44.291Z,460.2308
2023-04-30T09:35:45.760Z,454.1538
2023-04-30T09:36:47.154Z,454.3077
2023-04-30T09:37:48.606Z,453.5385
2023-04-30T09:38:49.996Z,451.0000
2023-04-30T09:39:51.455Z,450.2308
2023-04-30T09:40:52.887Z,453.9231
2023-04-30T09:41:54.355Z,460.5385
2023-04-30T09:42:55.682Z,465.6154
2023-04-30T09:43:57.186Z,469.2308
2023-04-30T09:44:58.569Z,474.5385
2023-04-30T09:46:00.295Z,476.1538
2023-04-30T09:47:01.486Z,482.6923
2023-04-30T09:48:12.761Z,488.1538
2023-04-30T09:49:04.282Z,490.0833
2023-04-30T09:50:05.732Z,496.6923
2023-04-30T09:51:07.166Z,496.0769
2023-04-30T09:52:08.652Z,498.1538
2023-04-30T09:53:09.987Z,506.1538
2023-04-30T09:54:11.463Z,510.5385
2023-04-30T09:55:12.852Z,513.6923
2023-04-30T09:56:14.373Z,516.6154
2023-04-30T09:57:15.828Z,522.0000
2023-04-30T09:58:17.202Z,528.0000
2023-04-30T09:59:18.835Z,528.3846
2023-04-30T10:00:19.996Z,532.5385
2023-04-30T10:01:21.536Z,537.0769
2023-04-30T10:02:23.107Z,537.8461
2023-04-30T10:03:24.281Z,541.0769
2023-04-30T10:04:25.770Z,541.3846
2023-04-30T10:05:27.162Z,544.6154
2023-04-30T10:06:28.710Z,548.3077
2023-04-30T10:07:30.057Z,550.8461
2023-04-30T10:08:31.354Z,555.8461
2023-04-30T10:09:32.834Z,558.6154
2023-04-30T10:10:34.315Z,569.3846
2023-04-30T10:11:35.795Z,577.3846
2023-04-30T10:12:37.192Z,580.3846
2023-04-30T10:13:38.573Z,581.5385
2023-04-30T10:14:39.990Z,583.0000
2023-04-30T10:15:41.401Z,582.9231
2023-04-30T10:16:42.935Z,586.2308
2023-04-30T10:17:44.386Z,606.4615
2023-04-30T10:18:45.696Z,620.3846
2023-04-30T10:19:47.858Z,631.7692
2023-04-30T10:20:48.567Z,634.6923
2023-04-30T10:21:49.996Z,652.0000
2023-04-30T10:22:51.339Z,711.1539
2023-04-30T10:23:52.798Z,726.9231
2023-04-30T10:24:54.254Z,707.7692
2023-04-30T10:25:55.646Z,683.9231
2023-04-30T10:26:57.164Z,681.3846
2023-04-30T10:27:58.610Z,669.9231
2023-04-30T10:28:59.919Z,664.5385
2023-04-30T10:30:01.344Z,682.2308
2023-04-30T10:31:02.709Z,694.2308
2023-04-30T10:32:04.558Z,705.9231
2023-04-30T10:33:05.746Z,696.8461
2023-04-30T10:34:07.068Z,689.3846
2023-04-30T10:35:08.443Z,687.0000
2023-04-30T10:36:09.916Z,675.8461
2023-04-30T10:37:11.376Z,675.6154
2023-04-30T10:38:12.813Z,674.7692
2023-04-30T10:39:14.150Z,677.7692
2023-04-30T10:40:15.607Z,687.1539
2023-04-30T10:41:17.036Z,700.0769
2023-04-30T10:42:18.479Z,721.0000
2023-04-30T10:43:19.855Z,725.8461
2023-04-30T10:44:21.340Z,735.5385
2023-04-30T10:45:22.686Z,749.3077
2023-04-30T10:46:24.223Z,774.6923
2023-04-30T10:47:25.509Z,791.6154
2023-04-30T10:48:27.013Z,796.5385
2023-04-30T10:49:28.396Z,801.4615
2023-04-30T10:50:29.785Z,806.5385
2023-04-30T10:51:31.248Z,809.9231
2023-04-30T10:52:32.632Z,814.8461
2023-04-30T10:53:34.113Z,812.2308
2023-04-30T10:54:35.510Z,810.3846
2023-04-30T10:55:36.952Z,817.6154
2023-04-30T10:56:38.330Z,820.3846
2023-04-30T10:57:39.733Z,820.0769
2023-04-30T10:58:41.316Z,816.3846
2023-04-30T10:59:42.642Z,823.0000
2023-04-30T11:00:44.964Z,827.1539
2023-04-30T11:01:45.584Z,828.2308
2023-04-30T11:02:46.904Z,832.6154
2023-04-30T11:03:48.368Z,831.0769
2023-04-30T11:04:49.769Z,834.3077
2023-04-30T11:05:51.205Z,835.6923
2023-04-30T11:06:52.562Z,839.3846
2023-04-30T11:07:54.050Z,840.8461
2023-04-30T11:08:55.394Z,839.3846
2023-04-30T11:09:57.147Z,840.7692
2023-04-30T11:10:58.266Z,839.4615
2023-04-30T11:11:59.696Z,839.4615
2023-04-30T11:13:01.733Z,841.0000
2023-04-30T11:14:02.601Z,841.3077
2023-04-30T11:15:04.001Z,848.1539
2023-04-30T11:16:05.492Z,858.5385
2023-04-30T11:17:06.851Z,863.8461
2023-04-30T11:18:08.322Z,865.0000
2023-04-30T11:19:11.550Z,861.2308
2023-04-30T11:20:11.219Z,855.4615
2023-04-30T11:21:12.572Z,853.6923
2023-04-30T11:22:13.968Z,860.3077
2023-04-30T11:23:19.551Z,860.5385
2023-04-30T11:24:16.819Z,859.8333
2023-04-30T11:25:18.258Z,860.0769
2023-04-30T11:26:19.589Z,865.3846
2023-04-30T11:27:21.069Z,862.1539
2023-04-30T11:28:22.461Z,861.4615
2023-04-30T11:29:23.975Z,857.1539
2023-04-30T11:30:25.443Z,855.8461
2023-04-30T11:31:26.741Z,856.0769
2023-04-30T11:32:28.207Z,857.5385
2023-04-30T11:33:29.611Z,860.9231
2023-04-30T11:34:31.059Z,861.3077
2023-04-30T11:35:32.539Z,869.2308
2023-04-30T11:36:33.876Z,875.2308
2023-04-30T11:37:35.296Z,878.2308
2023-04-30T11:38:36.608Z,881.4615
2023-04-30T11:39:38.224Z,882.9231
2023-04-30T11:40:39.623Z,887.6154
2023-04-30T11:41:41.030Z,888.3846
2023-04-30T11:42:44.998Z,890.3846
2023-04-30T11:43:43.899Z,885.3846
2023-04-30T11:44:45.284Z,886.0769
2023-04-30T11:45:46.793Z,892.2308
2023-04-30T11:46:48.196Z,892.0769
2023-04-30T11:47:49.588Z,890.0769
2023-04-30T11:48:50.946Z,896.0769
2023-04-30T11:49:52.983Z,891.9231
2023-04-30T11:50:53.784Z,890.6923
2023-04-30T11:51:55.288Z,887.6923
2023-04-30T11:52:56.739Z,884.2308
2023-04-30T11:53:58.190Z,887.0000
2023-04-30T11:54:59.612Z,889.0000
2023-04-30T11:56:01.114Z,892.7692
2023-04-30T11:57:02.454Z,893.6923
2023-04-30T11:58:03.880Z,896.6923
2023-04-30T11:59:05.271Z,896.3077
2023-04-30T12:00:06.794Z,897.1539
2023-04-30T12:01:08.177Z,898.1539